createdAt,value
2023-02-11T00:00:59.322Z,103528.28
2023-02-11T00:03:26.139Z,103535.41
2023-02-11T00:06:05.146Z,103530.91
2023-02-11T00:08:31.635Z,103531.72
2023-02-11T00:10:58.521Z,103531.94
2023-02-11T00:13:25.958Z,103519.56
2023-02-11T00:15:52.984Z,103524.03
2023-02-11T00:18:19.630Z,103524.03
2023-02-11T00:20:47.160Z,103529.53
2023-02-11T00:23:14.234Z,103529.31
2023-02-11T00:25:44.943Z,103518.75
2023-02-11T00:28:12.362Z,103525.88
2023-02-11T00:30:38.767Z,103526.44
2023-02-11T00:33:05.175Z,103516.91
2023-02-11T00:35:31.585Z,103522.66
2023-02-11T00:37:57.967Z,103529.78
2023-02-11T00:40:24.614Z,103527.31
2023-02-11T00:42:50.989Z,103530.78
2023-02-11T00:45:17.476Z,103531.38
2023-02-11T00:47:43.817Z,103532.19
2023-02-11T00:50:10.240Z,103537.47
2023-02-11T00:52:36.566Z,103534.25
2023-02-11T00:55:02.931Z,103533.41
2023-02-11T00:57:29.254Z,103527.13
2023-02-11T00:59:55.578Z,103527.31
2023-02-11T01:02:21.938Z,103522.03
2023-02-11T01:04:48.627Z,103522.03
2023-02-11T01:07:14.971Z,103516.19
2023-02-11T01:09:41.298Z,103511.94
2023-02-11T01:12:07.891Z,103498.09
2023-02-11T01:14:34.296Z,103498.09
2023-02-11T01:17:00.625Z,103500.16
2023-02-11T01:19:27.002Z,103503.84
2023-02-11T01:21:53.315Z,103503.84
2023-02-11T01:24:19.651Z,103486.38
2023-02-11T01:26:46.070Z,103468.34
2023-02-11T01:29:12.412Z,103473.03
2023-02-11T01:31:38.911Z,103471.84
2023-02-11T01:34:05.426Z,103490.81
2023-02-11T01:36:31.723Z,103493.88
2023-02-11T01:38:58.185Z,103512.56
2023-02-11T01:41:24.531Z,103509.72
2023-02-11T01:43:50.909Z,103520.03
2023-02-11T01:46:23.303Z,103520.66
2023-02-11T01:48:57.314Z,103515.38
2023-02-11T01:51:32.792Z,103509.47
2023-02-11T01:54:19.615Z,103509.94
2023-02-11T01:57:08.122Z,103505.88
2023-02-11T01:59:40.753Z,103508.19
2023-02-11T02:02:12.695Z,103513.06
2023-02-11T02:04:47.928Z,103513.31
2023-02-11T02:07:24.322Z,103523.88
2023-02-11T02:09:58.579Z,103523.06
2023-02-11T02:12:24.946Z,103515.56
2023-02-11T02:14:51.255Z,103507.06
2023-02-11T02:17:38.846Z,103513.38
2023-02-11T02:20:19.147Z,103502.22
2023-02-11T02:23:19.425Z,103505.06
2023-02-11T02:26:15.438Z,103505.06
2023-02-11T02:28:50.853Z,103503.25
2023-02-11T02:31:41.274Z,103504.69
2023-02-11T02:34:23.582Z,103498.69
2023-02-11T02:37:10.683Z,103504.03
2023-02-11T02:39:37.519Z,103499.41
2023-02-11T02:42:05.334Z,103491.94
2023-02-11T02:44:32.204Z,103478.59
2023-02-11T02:46:58.591Z,103476.94
2023-02-11T02:49:24.931Z,103483.84
2023-02-11T02:51:51.278Z,103489.94
2023-02-11T02:54:33.280Z,103490.53
2023-02-11T02:57:24.622Z,103486.03
2023-02-11T03:00:15.657Z,103489.72
2023-02-11T03:02:58.982Z,103491.09
2023-02-11T03:05:45.341Z,103489.06
2023-02-11T03:08:27.350Z,103488.25
2023-02-11T03:10:56.638Z,103482.19
2023-02-11T03:13:28.889Z,103474.47
2023-02-11T03:15:58.925Z,103477.72
2023-02-11T03:18:28.702Z,103474.84
2023-02-11T03:20:56.717Z,103464.53
2023-02-11T03:23:29.296Z,103460.28
2023-02-11T03:26:02.922Z,103463.09
2023-02-11T03:28:47.010Z,103460.69
2023-02-11T03:31:34.582Z,103459.09
2023-02-11T03:34:10.074Z,103459.50
2023-02-11T03:36:45.933Z,103462.16
2023-02-11T03:39:16.246Z,103465.59
2023-02-11T03:41:45.477Z,103469.88
2023-02-11T03:44:15.578Z,103461.94
2023-02-11T03:46:47.822Z,103452.22
2023-02-11T03:49:17.106Z,103442.06
2023-02-11T03:51:44.566Z,103431.97
2023-02-11T03:54:16.560Z,103440.88
2023-02-11T03:56:52.890Z,103446.97
2023-02-11T03:59:19.426Z,103453.06
2023-02-11T04:01:45.993Z,103454.06
2023-02-11T04:04:12.374Z,103456.72
2023-02-11T04:06:38.765Z,103457.97
2023-02-11T04:09:05.491Z,103462.22
2023-02-11T04:11:31.883Z,103464.03
2023-02-11T04:13:58.365Z,103471.16
2023-02-11T04:16:24.726Z,103465.66
2023-02-11T04:18:51.133Z,103464.84
2023-02-11T04:21:17.528Z,103466.47
2023-02-11T04:23:43.876Z,103464.63
2023-02-11T04:26:10.186Z,103466.84
2023-02-11T04:28:36.656Z,103468.44
2023-02-11T04:31:03.079Z,103468.44
2023-02-11T04:33:29.511Z,103468.44
2023-02-11T04:35:55.874Z,103481.41
2023-02-11T04:38:24.044Z,103479.38
2023-02-11T04:40:50.745Z,103478.13
2023-02-11T04:43:17.176Z,103478.94
2023-02-11T04:45:43.512Z,103476.09
2023-02-11T04:48:09.883Z,103477.72
2023-02-11T04:50:36.226Z,103476.69
2023-02-11T04:53:02.534Z,103479.31
2023-02-11T04:55:28.889Z,103479.09
2023-02-11T04:57:55.273Z,103471.97
2023-02-11T05:00:21.668Z,103475.44
2023-02-11T05:02:48.007Z,103476.03
2023-02-11T05:05:14.390Z,103467.91
2023-02-11T05:07:41.019Z,103468.69
2023-02-11T05:10:07.530Z,103474.34
2023-02-11T05:12:33.909Z,103475.16
2023-02-11T05:15:00.250Z,103479.19
2023-02-11T05:17:26.558Z,103469.44
2023-02-11T05:19:53.126Z,103471.25
2023-02-11T05:22:19.710Z,103477.16
2023-02-11T05:24:46.046Z,103478.53
2023-02-11T05:27:12.414Z,103477.28
2023-02-11T05:29:38.799Z,103482.34
2023-02-11T05:32:05.229Z,103480.53
2023-02-11T05:34:31.581Z,103470.53
2023-02-11T05:36:57.915Z,103472.16
2023-02-11T05:39:24.242Z,103471.34
2023-02-11T05:41:50.595Z,103469.72
2023-02-11T05:44:16.966Z,103465.03
2023-02-11T05:46:43.356Z,103466.66
2023-02-11T05:49:10.081Z,103463.22
2023-02-11T05:51:36.392Z,103465.03
2023-02-11T05:54:02.770Z,103465.88
2023-02-11T05:56:29.120Z,103464.59
2023-02-11T05:58:55.508Z,103469.66
2023-02-11T06:01:21.800Z,103472.09
2023-02-11T06:03:50.010Z,103463.97
2023-02-11T06:06:16.433Z,103470.84
2023-02-11T06:08:43.044Z,103469.59
2023-02-11T06:11:09.819Z,103473.06
2023-02-11T06:13:36.369Z,103484.63
2023-02-11T06:16:03.596Z,103479.34
2023-02-11T06:18:30.051Z,103485.22
2023-02-11T06:20:56.513Z,103483.16
2023-02-11T06:23:23.120Z,103482.13
2023-02-11T06:25:50.444Z,103485.38
2023-02-11T06:28:17.001Z,103473.19
2023-02-11T06:30:43.388Z,103480.66
2023-02-11T06:33:09.847Z,103481.25
2023-02-11T06:35:38.980Z,103481.84
2023-02-11T06:38:05.290Z,103470.25
2023-02-11T06:40:31.703Z,103476.34
2023-02-11T06:42:58.042Z,103476.91
2023-02-11T06:45:24.432Z,103475.06
2023-02-11T06:47:52.748Z,103473.47
2023-02-11T06:50:19.196Z,103476.72
2023-02-11T06:52:45.572Z,103475.06
2023-02-11T06:55:11.970Z,103475.06
2023-02-11T06:57:38.544Z,103476.72
2023-02-11T07:00:05.974Z,103481.75
2023-02-11T07:02:32.626Z,103475.44
2023-02-11T07:04:58.989Z,103486.59
2023-02-11T07:07:25.376Z,103484.78
2023-02-11T07:09:51.993Z,103495.34
2023-02-11T07:12:18.344Z,103491.66
2023-02-11T07:14:44.645Z,103501.19
2023-02-11T07:17:11.078Z,103495.69
2023-02-11T07:19:37.383Z,103504.41
2023-02-11T07:22:03.696Z,103494.47
2023-02-11T07:24:30.072Z,103500.91
2023-02-11T07:26:56.433Z,103508.19
2023-02-11T07:29:22.751Z,103510.59
2023-02-11T07:31:49.165Z,103506.94
2023-02-11T07:34:15.558Z,103519.13
2023-02-11T07:36:43.679Z,103522.34
2023-02-11T07:39:10.149Z,103516.81
2023-02-11T07:41:38.021Z,103522.94
2023-02-11T07:44:04.745Z,103525.59
2023-02-11T07:46:31.174Z,103527.53
2023-02-11T07:48:57.751Z,103525.50
2023-02-11T07:51:29.498Z,103526.88
2023-02-11T07:53:58.793Z,103526.44
2023-02-11T07:56:25.208Z,103530.13
2023-02-11T07:58:51.539Z,103520.13
2023-02-11T08:01:22.775Z,103525.41
2023-02-11T08:03:49.418Z,103529.09
2023-02-11T08:06:18.120Z,103524.59
2023-02-11T08:08:44.718Z,103533.09
2023-02-11T08:11:16.939Z,103526.59
2023-02-11T08:13:44.039Z,103533.47
2023-02-11T08:16:19.472Z,103528.75
2023-02-11T08:18:45.816Z,103539.72
2023-02-11T08:21:12.193Z,103542.13
2023-02-11T08:23:40.350Z,103531.53
2023-02-11T08:26:10.598Z,103532.72
2023-02-11T08:28:39.673Z,103531.44
2023-02-11T08:31:11.350Z,103535.50
2023-02-11T08:33:37.923Z,103535.25
2023-02-11T08:36:15.912Z,103541.94
2023-02-11T08:38:42.991Z,103537.25
2023-02-11T08:41:09.540Z,103551.84
2023-02-11T08:43:37.305Z,103548.75
2023-02-11T08:46:04.011Z,103554.63
2023-02-11T08:48:30.473Z,103555.00
2023-02-11T08:50:57.242Z,103548.66
2023-02-11T08:53:24.134Z,103548.00
2023-02-11T08:55:52.099Z,103556.06
2023-02-11T08:58:19.233Z,103553.75
2023-02-11T09:00:46.493Z,103561.25
2023-02-11T09:03:14.185Z,103556.53
2023-02-11T09:05:42.318Z,103556.66
2023-02-11T09:08:09.208Z,103563.91
2023-02-11T09:10:35.820Z,103569.34
2023-02-11T09:13:02.283Z,103574.53
2023-02-11T09:15:28.625Z,103575.22
2023-02-11T09:17:54.944Z,103580.66
2023-02-11T09:20:21.979Z,103578.72
2023-02-11T09:22:48.463Z,103582.63
2023-02-11T09:25:14.822Z,103573.19
2023-02-11T09:27:41.150Z,103578.63
2023-02-11T09:30:08.848Z,103587.72
2023-02-11T09:32:35.150Z,103585.41
2023-02-11T09:35:01.595Z,103585.75
2023-02-11T09:37:27.928Z,103593.81
2023-02-11T09:39:54.306Z,103594.94
2023-02-11T09:42:45.573Z,103594.50
2023-02-11T09:45:19.433Z,103597.50
2023-02-11T09:47:50.672Z,103591.72
2023-02-11T09:50:32.787Z,103596.91
2023-02-11T09:53:04.528Z,103590.69
2023-02-11T09:55:37.588Z,103597.72
2023-02-11T09:58:08.009Z,103597.59
2023-02-11T10:00:44.565Z,103607.03
2023-02-11T10:03:39.206Z,103613.22
2023-02-11T10:06:43.324Z,103609.41
2023-02-11T10:09:34.514Z,103620.22
2023-02-11T10:12:04.370Z,103623.78
2023-02-11T10:14:49.092Z,103622.84
2023-02-11T10:17:25.304Z,103624.81
2023-02-11T10:20:04.751Z,103626.88
2023-02-11T10:22:45.689Z,103636.63
2023-02-11T10:25:18.832Z,103633.13
2023-02-11T10:27:46.292Z,103634.44
2023-02-11T10:30:28.268Z,103637.88
2023-02-11T10:33:02.386Z,103648.00
2023-02-11T10:35:28.766Z,103641.91
2023-02-11T10:37:56.413Z,103646.34
2023-02-11T10:40:25.843Z,103642.41
2023-02-11T10:42:56.071Z,103647.72
2023-02-11T10:45:35.753Z,103654.06
2023-02-11T10:48:06.337Z,103655.09
2023-02-11T10:50:34.926Z,103655.91
2023-02-11T10:53:29.753Z,103650.53
2023-02-11T10:55:57.325Z,103652.06
2023-02-11T10:58:36.808Z,103645.63
2023-02-11T11:01:08.031Z,103642.88
2023-02-11T11:03:47.158Z,103653.75
2023-02-11T11:06:13.763Z,103652.44
2023-02-11T11:08:43.053Z,103655.09
2023-02-11T11:11:17.734Z,103663.50
2023-02-11T11:13:52.781Z,103662.03
2023-02-11T11:16:27.747Z,103671.47
2023-02-11T11:19:16.068Z,103672.19
2023-02-11T11:21:47.922Z,103678.28
2023-02-11T11:24:41.551Z,103664.47
2023-02-11T11:27:17.979Z,103678.03
2023-02-11T11:29:50.912Z,103677.06
2023-02-11T11:32:24.083Z,103686.91
2023-02-11T11:34:54.215Z,103682.38
2023-02-11T11:37:23.455Z,103687.63
2023-02-11T11:39:59.009Z,103689.25
2023-02-11T11:42:31.692Z,103690.69
2023-02-11T11:45:01.438Z,103687.94
2023-02-11T11:47:47.178Z,103679.56
2023-02-11T11:50:28.640Z,103678.56
2023-02-11T11:53:13.598Z,103665.09
2023-02-11T11:55:44.731Z,103660.72
2023-02-11T11:58:16.596Z,103661.38
2023-02-11T12:00:55.379Z,103652.31
2023-02-11T12:03:43.710Z,103658.44
2023-02-11T12:06:18.502Z,103659.75
2023-02-11T12:09:25.728Z,103653.44
2023-02-11T12:12:21.446Z,103642.34
2023-02-11T12:15:07.122Z,103640.75
2023-02-11T12:17:57.179Z,103644.16
2023-02-11T12:20:39.711Z,103647.63
2023-02-11T12:23:24.967Z,103653.50
2023-02-11T12:26:01.010Z,103655.38
2023-02-11T12:28:38.499Z,103658.03
2023-02-11T12:31:30.738Z,103657.72
2023-02-11T12:34:18.617Z,103642.75
2023-02-11T12:37:04.623Z,103650.97
2023-02-11T12:39:35.900Z,103649.13
2023-02-11T12:42:35.544Z,103657.03
2023-02-11T12:45:10.833Z,103654.28
2023-02-11T12:47:55.678Z,103651.63
2023-02-11T12:50:50.132Z,103660.50
2023-02-11T12:53:41.707Z,103641.63
2023-02-11T12:56:56.047Z,103640.50
2023-02-11T12:59:45.535Z,103655.41
2023-02-11T13:02:23.157Z,103638.75
2023-02-11T13:04:53.943Z,103643.22
2023-02-11T13:07:31.135Z,103643.88
2023-02-11T13:10:15.439Z,103645.47
2023-02-11T13:13:07.180Z,103641.28
2023-02-11T13:15:33.555Z,103642.00
2023-02-11T13:18:19.089Z,103650.75
2023-02-11T13:20:55.516Z,103646.50
2023-02-11T13:23:58.111Z,103635.91
2023-02-11T13:26:52.471Z,103635.69
2023-02-11T13:29:37.287Z,103639.69
2023-02-11T13:32:14.803Z,103635.69
2023-02-11T13:34:41.122Z,103634.06
2023-02-11T13:37:21.407Z,103631.59
2023-02-11T13:40:19.007Z,103626.84
2023-02-11T13:42:54.610Z,103623.06
2023-02-11T13:45:44.090Z,103620.09
2023-02-11T13:48:30.948Z,103622.22
2023-02-11T13:51:12.943Z,103636.88
2023-02-11T13:53:49.080Z,103638.19
2023-02-11T13:56:34.981Z,103636.28
2023-02-11T13:59:04.545Z,103628.03
2023-02-11T14:02:12.341Z,103632.06
2023-02-11T14:05:23.364Z,103636.88
2023-02-11T14:08:28.533Z,103646.97
2023-02-11T14:10:56.205Z,103644.25
2023-02-11T14:13:28.777Z,103645.75
2023-02-11T14:16:09.994Z,103637.69
2023-02-11T14:18:45.078Z,103639.28
2023-02-11T14:21:23.422Z,103635.50
2023-02-11T14:23:54.146Z,103645.59
2023-02-11T14:26:20.410Z,103638.66
2023-02-11T14:29:15.055Z,103644.78
2023-02-11T14:32:00.097Z,103653.25
2023-02-11T14:34:48.102Z,103646.88
2023-02-11T14:37:19.128Z,103640.28
2023-02-11T14:39:54.274Z,103648.00
2023-02-11T14:42:26.454Z,103651.41
2023-02-11T14:44:57.559Z,103648.72
2023-02-11T14:47:35.679Z,103655.13
2023-02-11T14:50:02.194Z,103652.47
2023-02-11T14:52:31.543Z,103654.84
2023-02-11T14:55:34.598Z,103653.50
2023-02-11T14:58:29.434Z,103658.03
2023-02-11T15:01:00.838Z,103651.91
2023-02-11T15:03:28.362Z,103656.66
2023-02-11T15:06:18.402Z,103663.53
2023-02-11T15:09:00.872Z,103655.50
2023-02-11T15:11:31.054Z,103658.63
2023-02-11T15:14:01.066Z,103662.91
2023-02-11T15:16:28.911Z,103661.28
2023-02-11T15:19:01.238Z,103670.78
2023-02-11T15:21:30.778Z,103669.69
2023-02-11T15:24:02.213Z,103677.09
2023-02-11T15:26:29.841Z,103677.59
2023-02-11T15:28:56.182Z,103680.44
2023-02-11T15:31:25.111Z,103678.50
2023-02-11T15:33:52.706Z,103678.44
2023-02-11T15:36:23.753Z,103679.63
2023-02-11T15:39:27.486Z,103677.16
2023-02-11T15:41:53.793Z,103679.19
2023-02-11T15:44:29.997Z,103681.75
2023-02-11T15:47:00.362Z,103675.81
2023-02-11T15:49:27.026Z,103687.16
2023-02-11T15:51:57.020Z,103681.22
2023-02-11T15:54:27.926Z,103695.22
2023-02-11T15:57:01.823Z,103689.34
2023-02-11T15:59:50.519Z,103699.53
2023-02-11T16:02:34.802Z,103694.94
2023-02-11T16:05:09.237Z,103693.25
2023-02-11T16:07:45.657Z,103695.56
2023-02-11T16:10:23.005Z,103701.38
2023-02-11T16:12:54.579Z,103692.25
2023-02-11T16:15:41.336Z,103694.81
2023-02-11T16:18:37.303Z,103692.31
2023-02-11T16:21:06.949Z,103701.22
2023-02-11T16:23:36.727Z,103695.81
2023-02-11T16:26:27.455Z,103701.53
2023-02-11T16:29:01.642Z,103705.44
2023-02-11T16:31:36.088Z,103708.22
2023-02-11T16:34:02.711Z,103709.72
2023-02-11T16:36:29.031Z,103709.31
2023-02-11T16:38:55.596Z,103701.50
2023-02-11T16:41:22.186Z,103711.19
2023-02-11T16:43:48.555Z,103707.63
2023-02-11T16:46:15.957Z,103720.78
2023-02-11T16:48:42.614Z,103716.94
2023-02-11T16:51:11.712Z,103724.31
2023-02-11T16:53:38.040Z,103721.88
2023-02-11T16:56:04.692Z,103735.38
2023-02-11T16:58:31.053Z,103726.06
2023-02-11T17:00:57.918Z,103731.81
2023-02-11T17:03:29.599Z,103741.03
2023-02-11T17:05:56.367Z,103753.47
2023-02-11T17:08:22.959Z,103751.06
2023-02-11T17:10:49.740Z,103757.41
2023-02-11T17:13:16.282Z,103759.47
2023-02-11T17:15:42.643Z,103752.91
2023-02-11T17:18:12.371Z,103755.56
2023-02-11T17:20:39.121Z,103759.00
2023-02-11T17:23:05.479Z,103756.84
2023-02-11T17:25:32.590Z,103768.94
2023-02-11T17:27:58.934Z,103768.34
2023-02-11T17:30:25.359Z,103763.25
2023-02-11T17:32:51.695Z,103762.94
2023-02-11T17:35:18.096Z,103763.84
2023-02-11T17:37:44.465Z,103769.59
2023-02-11T17:40:11.534Z,103771.69
2023-02-11T17:42:37.834Z,103776.38
2023-02-11T17:45:04.741Z,103770.75
2023-02-11T17:47:31.360Z,103774.19
2023-02-11T17:49:58.059Z,103784.44
2023-02-11T17:52:26.476Z,103777.75
2023-02-11T17:54:52.882Z,103783.50
2023-02-11T17:57:19.199Z,103784.78
2023-02-11T17:59:45.782Z,103783.13
2023-02-11T18:02:12.768Z,103779.13
2023-02-11T18:04:40.025Z,103786.50
2023-02-11T18:07:06.709Z,103790.16
2023-02-11T18:09:38.025Z,103786.34
2023-02-11T18:12:05.303Z,103792.09
2023-02-11T18:14:31.726Z,103788.41
2023-02-11T18:16:58.111Z,103790.94
2023-02-11T18:19:24.503Z,103797.72
2023-02-11T18:21:50.936Z,103794.47
2023-02-11T18:24:17.860Z,103797.94
2023-02-11T18:26:44.224Z,103797.50
2023-02-11T18:29:10.588Z,103801.75
2023-02-11T18:31:37.196Z,103803.59
2023-02-11T18:34:07.263Z,103801.97
2023-02-11T18:36:34.661Z,103806.91
2023-02-11T18:39:01.003Z,103807.16
2023-02-11T18:41:27.769Z,103812.00
2023-02-11T18:43:54.275Z,103822.00
2023-02-11T18:46:20.664Z,103816.13
2023-02-11T18:48:47.044Z,103817.97
2023-02-11T18:51:18.676Z,103822.47
2023-02-11T18:53:45.401Z,103814.72
2023-02-11T18:56:19.098Z,103822.47
2023-02-11T18:58:45.428Z,103820.00
2023-02-11T19:01:27.636Z,103819.22
2023-02-11T19:03:55.607Z,103831.41
2023-02-11T19:06:27.208Z,103821.84
2023-02-11T19:09:00.213Z,103830.59
2023-02-11T19:11:46.423Z,103832.25
2023-02-11T19:14:14.361Z,103832.00
2023-02-11T19:16:42.598Z,103833.06
2023-02-11T19:19:09.567Z,103832.69
2023-02-11T19:21:39.048Z,103835.09
2023-02-11T19:24:10.123Z,103834.53
2023-02-11T19:26:37.168Z,103825.78
2023-02-11T19:29:05.564Z,103834.75
2023-02-11T19:31:32.661Z,103842.47
2023-02-11T19:34:00.308Z,103842.47
2023-02-11T19:36:26.927Z,103847.19
2023-02-11T19:38:53.909Z,103856.75
2023-02-11T19:41:22.417Z,103859.38
2023-02-11T19:43:52.980Z,103858.34
2023-02-11T19:46:21.052Z,103858.34
2023-02-11T19:48:49.127Z,103856.28
2023-02-11T19:51:16.606Z,103865.25
2023-02-11T19:53:44.442Z,103860.75
2023-02-11T19:56:11.297Z,103862.59
2023-02-11T19:58:44.282Z,103863.66
2023-02-11T20:01:12.625Z,103871.34
2023-02-11T20:03:42.405Z,103872.97
2023-02-11T20:06:13.201Z,103880.09
2023-02-11T20:08:40.455Z,103883.56
2023-02-11T20:11:10.456Z,103878.50
2023-02-11T20:13:37.748Z,103882.19
2023-02-11T20:16:09.814Z,103884.25
2023-02-11T20:18:36.927Z,103884.25
2023-02-11T20:21:11.907Z,103889.75
2023-02-11T20:23:40.148Z,103887.47
2023-02-11T20:26:12.989Z,103886.91
2023-02-11T20:28:43.538Z,103898.50
2023-02-11T20:31:11.287Z,103895.28
2023-02-11T20:33:38.563Z,103900.78
2023-02-11T20:36:11.119Z,103898.59
2023-02-11T20:38:37.530Z,103906.53
2023-02-11T20:41:13.722Z,103909.97
2023-02-11T20:43:48.243Z,103915.28
2023-02-11T20:46:16.965Z,103908.38
2023-02-11T20:48:43.566Z,103911.81
2023-02-11T20:51:16.666Z,103911.00
2023-02-11T20:53:47.847Z,103913.09
2023-02-11T20:56:15.293Z,103921.03
2023-02-11T20:58:41.729Z,103920.22
2023-02-11T21:01:10.021Z,103917.56
2023-02-11T21:03:36.574Z,103922.06
2023-02-11T21:06:03.350Z,103923.28
2023-02-11T21:08:29.713Z,103929.16
2023-02-11T21:10:56.354Z,103927.78
2023-02-11T21:13:22.737Z,103926.16
2023-02-11T21:15:55.764Z,103930.44
2023-02-11T21:18:23.803Z,103931.47
2023-02-11T21:20:50.390Z,103932.03
2023-02-11T21:23:17.110Z,103934.91
2023-02-11T21:25:46.429Z,103938.94
2023-02-11T21:28:12.944Z,103935.28
2023-02-11T21:30:40.478Z,103944.47
2023-02-11T21:33:07.035Z,103946.31
2023-02-11T21:35:35.185Z,103948.16
2023-02-11T21:38:05.176Z,103953.66
2023-02-11T21:40:32.064Z,103944.91
2023-02-11T21:42:58.714Z,103950.41
2023-02-11T21:45:26.001Z,103951.44
2023-02-11T21:47:52.530Z,103951.91
2023-02-11T21:50:18.993Z,103960.84
2023-02-11T21:52:45.604Z,103962.91
2023-02-11T21:55:12.338Z,103958.66
2023-02-11T21:57:38.678Z,103961.72
2023-02-11T22:00:06.654Z,103961.53
2023-02-11T22:02:33.418Z,103964.38
2023-02-11T22:04:59.838Z,103967.81
2023-02-11T22:07:28.003Z,103972.31
2023-02-11T22:09:55.585Z,103977.03
2023-02-11T22:12:23.026Z,103965.63
2023-02-11T22:14:49.475Z,103969.09
2023-02-11T22:17:16.131Z,103984.97
2023-02-11T22:19:42.487Z,103978.06
2023-02-11T22:22:09.298Z,103979.91
2023-02-11T22:24:35.835Z,103981.72
2023-02-11T22:27:03.160Z,103977.44
2023-02-11T22:29:29.502Z,103981.94
2023-02-11T22:31:55.925Z,103973.19
2023-02-11T22:34:22.246Z,103969.94
2023-02-11T22:36:48.572Z,103971.34
2023-02-11T22:39:16.787Z,103975.59
2023-02-11T22:41:45.550Z,103983.34
2023-02-11T22:44:12.721Z,103983.34
2023-02-11T22:46:39.534Z,103977.25
2023-02-11T22:49:07.179Z,103985.38
2023-02-11T22:51:34.110Z,103980.09
2023-02-11T22:54:03.354Z,103976.44
2023-02-11T22:56:31.814Z,103989.44
2023-02-11T22:59:01.170Z,103981.50
2023-02-11T23:01:29.279Z,103986.56
2023-02-11T23:03:56.030Z,103986.56
2023-02-11T23:06:22.918Z,103986.00
2023-02-11T23:08:49.245Z,103985.38
2023-02-11T23:11:19.014Z,103993.31
2023-02-11T23:13:47.227Z,103983.75
2023-02-11T23:16:17.770Z,103984.00
2023-02-11T23:18:45.551Z,103979.72
2023-02-11T23:21:18.106Z,103989.50
2023-02-11T23:23:45.325Z,103989.50
2023-02-11T23:26:13.659Z,103992.16
2023-02-11T23:28:40.653Z,103987.88
2023-02-11T23:31:18.306Z,103982.56
2023-02-11T23:33:45.402Z,103988.47
2023-02-11T23:36:12.206Z,103989.88
2023-02-11T23:38:38.534Z,103988.03
2023-02-11T23:41:05.350Z,103993.31
2023-02-11T23:43:32.009Z,103991.72
2023-02-11T23:45:58.974Z,103996.41
2023-02-11T23:48:25.922Z,103990.50
2023-02-11T23:50:52.434Z,103988.91
2023-02-11T23:53:18.907Z,103990.97
2023-02-11T23:55:49.099Z,103991.75
2023-02-11T23:58:15.613Z,103989.94
